createdAt,value
2023-04-15T00:01:12.128Z,15.52
2023-04-15T00:03:39.535Z,15.34
2023-04-15T00:06:07.115Z,15.21
2023-04-15T00:08:34.881Z,15.28
2023-04-15T00:11:05.856Z,15.28
2023-04-15T00:13:37.605Z,15.29
2023-04-15T00:16:04.968Z,15.28
2023-04-15T00:18:32.203Z,15.34
2023-04-15T00:20:59.757Z,15.26
2023-04-15T00:23:28.479Z,15.37
2023-04-15T00:25:55.663Z,15.18
2023-04-15T00:28:22.876Z,15.13
2023-04-15T00:30:50.465Z,15.08
2023-04-15T00:33:17.773Z,14.95
2023-04-15T00:35:44.896Z,15.01
2023-04-15T00:38:13.270Z,14.87
2023-04-15T00:40:42.847Z,14.95
2023-04-15T00:43:10.441Z,14.92
2023-04-15T00:45:37.453Z,15.03
2023-04-15T00:48:05.898Z,15.09
2023-04-15T00:50:33.640Z,15.06
2023-04-15T00:53:01.303Z,15.10
2023-04-15T00:55:28.272Z,15.04
2023-04-15T00:57:56.630Z,15.02
2023-04-15T01:00:24.249Z,15.01
2023-04-15T01:02:51.610Z,14.98
2023-04-15T01:05:19.811Z,15.00
2023-04-15T01:07:48.633Z,15.14
2023-04-15T01:10:15.665Z,14.98
2023-04-15T01:12:44.607Z,14.90
2023-04-15T01:15:11.717Z,14.71
2023-04-15T01:17:39.803Z,14.84
2023-04-15T01:20:10.893Z,14.89
2023-04-15T01:22:38.578Z,14.90
2023-04-15T01:25:18.278Z,14.97
2023-04-15T01:27:45.746Z,14.57
2023-04-15T01:30:12.756Z,14.49
2023-04-15T01:32:39.765Z,14.45
2023-04-15T01:35:07.829Z,14.57
2023-04-15T01:37:35.877Z,14.58
2023-04-15T01:40:03.427Z,14.50
2023-04-15T01:42:30.559Z,14.52
2023-04-15T01:44:57.753Z,14.53
2023-04-15T01:47:24.726Z,14.64
2023-04-15T01:49:51.752Z,14.64
2023-04-15T01:52:19.552Z,14.75
2023-04-15T01:54:46.714Z,14.67
2023-04-15T01:57:13.840Z,14.53
2023-04-15T01:59:41.106Z,14.59
2023-04-15T02:02:08.248Z,14.42
2023-04-15T02:04:35.262Z,14.35
2023-04-15T02:07:02.256Z,14.35
2023-04-15T02:09:30.037Z,14.37
2023-04-15T02:11:57.428Z,14.38
2023-04-15T02:14:24.621Z,14.25
2023-04-15T02:16:51.732Z,14.19
2023-04-15T02:19:18.991Z,14.16
2023-04-15T02:21:46.062Z,14.16
2023-04-15T02:24:13.350Z,14.07
2023-04-15T02:26:41.833Z,14.13
2023-04-15T02:29:08.889Z,13.99
2023-04-15T02:31:40.549Z,14.07
2023-04-15T02:34:08.312Z,14.16
2023-04-15T02:36:35.335Z,14.15
2023-04-15T02:39:02.940Z,14.16
2023-04-15T02:41:30.646Z,14.08
2023-04-15T02:43:58.279Z,14.06
2023-04-15T02:46:26.385Z,13.99
2023-04-15T02:48:53.943Z,13.93
2023-04-15T02:51:23.031Z,13.98
2023-04-15T02:53:50.572Z,14.06
2023-04-15T02:56:19.532Z,14.04
2023-04-15T02:58:46.940Z,14.01
2023-04-15T03:01:14.601Z,13.91
2023-04-15T03:03:42.461Z,13.88
2023-04-15T03:06:09.798Z,13.79
2023-04-15T03:08:37.388Z,13.92
2023-04-15T03:11:05.126Z,14.03
2023-04-15T03:13:34.162Z,13.99
2023-04-15T03:16:09.268Z,13.90
2023-04-15T03:18:36.355Z,13.91
2023-04-15T03:21:04.152Z,13.95
2023-04-15T03:23:35.119Z,13.87
2023-04-15T03:26:03.630Z,13.95
2023-04-15T03:28:32.790Z,13.94
2023-04-15T03:31:00.840Z,13.92
2023-04-15T03:33:27.868Z,13.81
2023-04-15T03:35:54.846Z,13.73
2023-04-15T03:38:21.790Z,13.67
2023-04-15T03:40:49.221Z,13.79
2023-04-15T03:43:16.607Z,13.73
2023-04-15T03:45:43.586Z,13.79
2023-04-15T03:48:16.623Z,13.79
2023-04-15T03:50:44.793Z,13.76
2023-04-15T03:53:11.772Z,13.73
2023-04-15T03:55:38.704Z,13.71
2023-04-15T03:58:05.757Z,13.70
2023-04-15T04:00:32.948Z,13.72
2023-04-15T04:03:00.371Z,13.72
2023-04-15T04:05:27.515Z,13.59
2023-04-15T04:07:54.480Z,13.65
2023-04-15T04:10:21.562Z,13.56
2023-04-15T04:12:48.569Z,13.55
2023-04-15T04:15:15.954Z,13.54
2023-04-15T04:17:43.308Z,13.54
2023-04-15T04:20:10.497Z,13.38
2023-04-15T04:22:43.778Z,13.59
2023-04-15T04:25:11.351Z,13.41
2023-04-15T04:27:38.460Z,13.24
2023-04-15T04:30:06.909Z,13.33
2023-04-15T04:32:33.923Z,13.32
2023-04-15T04:35:00.986Z,13.31
2023-04-15T04:37:28.049Z,13.33
2023-04-15T04:39:55.058Z,13.35
2023-04-15T04:42:22.535Z,13.29
2023-04-15T04:44:49.516Z,13.18
2023-04-15T04:47:16.532Z,13.18
2023-04-15T04:49:43.536Z,13.18
2023-04-15T04:52:10.811Z,13.08
2023-04-15T04:54:38.020Z,13.12
2023-04-15T04:57:05.119Z,13.11
2023-04-15T04:59:32.099Z,13.16
2023-04-15T05:01:59.450Z,13.38
2023-04-15T05:04:26.540Z,13.17
2023-04-15T05:06:53.741Z,13.21
2023-04-15T05:09:20.989Z,13.27
2023-04-15T05:11:47.940Z,13.21
2023-04-15T05:14:15.160Z,13.24
2023-04-15T05:16:42.405Z,15.64
2023-04-15T05:19:09.437Z,15.98
2023-04-15T05:21:38.397Z,15.93
2023-04-15T05:24:07.117Z,16.03
2023-04-15T05:26:34.069Z,15.93
2023-04-15T05:29:01.644Z,15.83
2023-04-15T05:31:29.326Z,15.70
2023-04-15T05:33:56.813Z,15.55
2023-04-15T05:36:23.730Z,13.60
2023-04-15T05:38:51.124Z,13.37
2023-04-15T05:41:19.830Z,13.27
2023-04-15T05:43:47.315Z,13.24
2023-04-15T05:46:14.307Z,13.20
2023-04-15T05:48:41.649Z,13.16
2023-04-15T05:51:08.731Z,14.88
2023-04-15T05:53:35.908Z,14.55
2023-04-15T05:56:02.902Z,13.36
2023-04-15T05:58:30.130Z,13.22
2023-04-15T06:00:57.361Z,13.30
2023-04-15T06:03:24.574Z,13.77
2023-04-15T06:05:51.846Z,13.41
2023-04-15T06:08:19.575Z,13.36
2023-04-15T06:10:46.666Z,13.39
2023-04-15T06:13:13.619Z,13.59
2023-04-15T06:15:40.544Z,13.45
2023-04-15T06:18:07.495Z,14.23
2023-04-15T06:20:34.905Z,13.72
2023-04-15T06:23:01.959Z,13.43
2023-04-15T06:25:29.181Z,13.33
2023-04-15T06:27:56.213Z,13.30
2023-04-15T06:30:24.456Z,13.46
2023-04-15T06:32:51.715Z,13.61
2023-04-15T06:35:19.091Z,13.38
2023-04-15T06:37:46.265Z,13.33
2023-04-15T06:40:13.834Z,13.41
2023-04-15T06:42:41.853Z,13.48
2023-04-15T06:45:09.640Z,13.78
2023-04-15T06:47:36.867Z,13.83
2023-04-15T06:50:04.217Z,13.81
2023-04-15T06:52:32.246Z,13.99
2023-04-15T06:54:59.607Z,13.92
2023-04-15T06:57:26.644Z,13.96
2023-04-15T06:59:54.659Z,13.87
2023-04-15T07:02:22.181Z,13.69
2023-04-15T07:04:49.166Z,13.77
2023-04-15T07:07:17.540Z,13.98
2023-04-15T07:09:45.165Z,13.71
2023-04-15T07:12:12.200Z,14.08
2023-04-15T07:14:39.726Z,14.07
2023-04-15T07:17:07.733Z,14.20
2023-04-15T07:19:34.868Z,14.08
2023-04-15T07:22:01.954Z,14.04
2023-04-15T07:24:29.014Z,14.01
2023-04-15T07:26:59.554Z,14.24
2023-04-15T07:29:28.146Z,14.11
2023-04-15T07:31:57.323Z,14.23
2023-04-15T07:34:24.693Z,14.21
2023-04-15T07:36:52.143Z,14.46
2023-04-15T07:39:21.466Z,14.52
2023-04-15T07:41:49.250Z,14.32
2023-04-15T07:44:16.240Z,14.61
2023-04-15T07:46:43.251Z,14.41
2023-04-15T07:49:10.688Z,14.35
2023-04-15T07:51:38.474Z,14.02
2023-04-15T07:54:05.408Z,13.91
2023-04-15T07:56:32.641Z,14.29
2023-04-15T07:59:02.258Z,14.23
2023-04-15T08:01:29.789Z,14.86
2023-04-15T08:03:57.381Z,14.71
2023-04-15T08:06:24.450Z,14.21
2023-04-15T08:08:52.027Z,14.60
2023-04-15T08:11:18.974Z,14.49
2023-04-15T08:13:47.340Z,14.24
2023-04-15T08:16:42.399Z,14.48
2023-04-15T08:19:09.774Z,14.47
2023-04-15T08:21:36.858Z,14.27
2023-04-15T08:24:03.992Z,13.97
2023-04-15T08:26:31.365Z,14.42
2023-04-15T08:28:58.713Z,14.85
2023-04-15T08:31:27.839Z,14.65
2023-04-15T08:33:57.663Z,14.53
2023-04-15T08:36:25.050Z,14.10
2023-04-15T08:38:55.224Z,14.72
2023-04-15T08:41:25.475Z,14.61
2023-04-15T08:44:04.749Z,14.61
2023-04-15T08:46:35.051Z,14.59
2023-04-15T08:49:05.135Z,14.73
2023-04-15T08:51:34.100Z,14.94
2023-04-15T08:54:02.539Z,15.16
2023-04-15T08:56:35.039Z,14.95
2023-04-15T08:59:02.692Z,15.18
2023-04-15T09:01:30.166Z,15.14
2023-04-15T09:03:59.320Z,15.31
2023-04-15T09:06:27.145Z,14.89
2023-04-15T09:08:54.332Z,14.70
2023-04-15T09:11:22.658Z,15.18
2023-04-15T09:13:50.730Z,15.69
2023-04-15T09:16:17.771Z,14.90
2023-04-15T09:18:45.235Z,15.31
2023-04-15T09:21:17.781Z,15.28
2023-04-15T09:24:02.561Z,16.11
2023-04-15T09:26:36.242Z,16.60
2023-04-15T09:29:25.158Z,16.47
2023-04-15T09:31:52.886Z,15.80
2023-04-15T09:34:20.731Z,16.21
2023-04-15T09:36:49.227Z,16.32
2023-04-15T09:39:17.927Z,16.22
2023-04-15T09:41:45.199Z,16.11
2023-04-15T09:44:27.872Z,16.22
2023-04-15T09:46:54.954Z,16.30
2023-04-15T09:49:24.922Z,16.59
2023-04-15T09:52:04.574Z,15.43
2023-04-15T09:54:41.028Z,15.94
2023-04-15T09:57:10.592Z,16.48
2023-04-15T09:59:37.634Z,15.34
2023-04-15T10:02:07.103Z,15.53
2023-04-15T10:04:42.128Z,16.63
2023-04-15T10:07:10.452Z,16.74
2023-04-15T10:09:39.753Z,15.98
2023-04-15T10:12:07.268Z,15.56
2023-04-15T10:14:38.566Z,15.46
2023-04-15T10:17:06.459Z,15.47
2023-04-15T10:19:36.618Z,15.57
2023-04-15T10:22:04.024Z,15.60
2023-04-15T10:24:34.485Z,15.85
2023-04-15T10:27:03.807Z,15.62
2023-04-15T10:29:31.145Z,14.82
2023-04-15T10:31:59.939Z,15.27
2023-04-15T10:34:28.126Z,15.37
2023-04-15T10:37:06.108Z,15.92
2023-04-15T10:39:44.404Z,16.60
2023-04-15T10:42:17.584Z,16.02
2023-04-15T10:44:53.797Z,15.81
2023-04-15T10:47:23.555Z,15.44
2023-04-15T10:49:58.506Z,15.51
2023-04-15T10:52:27.731Z,15.80
2023-04-15T10:55:14.349Z,15.90
2023-04-15T10:57:45.661Z,16.29
2023-04-15T11:00:17.535Z,15.94
2023-04-15T11:02:57.538Z,15.94
2023-04-15T11:05:52.280Z,15.69
2023-04-15T11:08:59.297Z,15.55
2023-04-15T11:12:09.527Z,16.25
2023-04-15T11:14:43.515Z,16.29
2023-04-15T11:17:10.688Z,15.83
2023-04-15T11:19:40.973Z,16.01
2023-04-15T11:22:11.696Z,15.58
2023-04-15T11:24:50.550Z,15.87
2023-04-15T11:27:24.697Z,15.91
2023-04-15T11:29:52.969Z,16.21
2023-04-15T11:32:21.955Z,15.57
2023-04-15T11:34:49.222Z,15.16
2023-04-15T11:37:16.486Z,15.60
2023-04-15T11:39:43.531Z,15.44
2023-04-15T11:42:19.873Z,16.09
2023-04-15T11:44:46.894Z,15.36
2023-04-15T11:47:26.315Z,15.86
2023-04-15T11:49:53.384Z,16.02
2023-04-15T11:52:20.651Z,15.66
2023-04-15T11:54:47.904Z,15.87
2023-04-15T11:57:15.378Z,15.61
2023-04-15T11:59:45.829Z,15.49
2023-04-15T12:02:14.357Z,15.58
2023-04-15T12:04:42.312Z,15.65
2023-04-15T12:07:09.584Z,16.05
2023-04-15T12:09:40.088Z,16.41
2023-04-15T12:12:07.139Z,16.25
2023-04-15T12:14:34.535Z,16.17
2023-04-15T12:17:06.876Z,16.49
2023-04-15T12:19:40.341Z,15.78
2023-04-15T12:22:11.933Z,16.02
2023-04-15T12:24:40.000Z,16.05
2023-04-15T12:27:09.735Z,16.09
2023-04-15T12:29:39.281Z,16.49
2023-04-15T12:32:21.015Z,16.03
2023-04-15T12:34:54.324Z,16.05
2023-04-15T12:37:21.575Z,15.81
2023-04-15T12:39:49.795Z,16.05
2023-04-15T12:42:18.397Z,15.67
2023-04-15T12:44:45.797Z,15.54
2023-04-15T12:47:13.721Z,15.78
2023-04-15T12:49:41.358Z,15.67
2023-04-15T12:52:08.425Z,15.26
2023-04-15T12:54:36.154Z,15.80
2023-04-15T12:57:06.888Z,15.86
2023-04-15T12:59:35.325Z,15.89
2023-04-15T13:02:03.214Z,15.93
2023-04-15T13:04:31.069Z,15.60
2023-04-15T13:06:58.572Z,15.66
2023-04-15T13:09:25.880Z,15.94
2023-04-15T13:11:53.059Z,15.80
2023-04-15T13:14:20.155Z,15.78
2023-04-15T13:16:47.373Z,15.61
2023-04-15T13:19:14.361Z,16.16
2023-04-15T13:21:41.602Z,16.52
2023-04-15T13:24:09.703Z,16.71
2023-04-15T13:26:36.774Z,16.49
2023-04-15T13:29:05.238Z,16.64
2023-04-15T13:31:32.278Z,15.96
2023-04-15T13:33:59.552Z,16.20
2023-04-15T13:36:27.275Z,15.04
2023-04-15T13:38:54.469Z,16.02
2023-04-15T13:41:21.446Z,16.32
2023-04-15T13:43:48.477Z,16.21
2023-04-15T13:46:16.168Z,16.29
2023-04-15T13:48:43.175Z,16.09
2023-04-15T13:51:10.104Z,16.05
2023-04-15T13:53:38.999Z,15.66
2023-04-15T13:56:10.539Z,15.58
2023-04-15T13:58:38.659Z,16.04
2023-04-15T14:01:07.276Z,16.17
2023-04-15T14:03:37.995Z,15.96
2023-04-15T14:06:06.475Z,16.33
2023-04-15T14:08:33.857Z,15.70
2023-04-15T14:11:01.040Z,16.28
2023-04-15T14:13:28.135Z,16.28
2023-04-15T14:15:55.539Z,15.88
2023-04-15T14:18:22.757Z,15.89
2023-04-15T14:20:49.703Z,15.25
2023-04-15T14:23:16.701Z,15.34
2023-04-15T14:25:45.059Z,15.31
2023-04-15T14:28:13.840Z,15.75
2023-04-15T14:30:40.892Z,15.26
2023-04-15T14:33:07.897Z,15.49
2023-04-15T14:35:35.113Z,15.32
2023-04-15T14:38:02.169Z,14.95
2023-04-15T14:40:29.295Z,15.47
2023-04-15T14:42:56.333Z,15.33
2023-04-15T14:45:23.845Z,15.48
2023-04-15T14:47:51.086Z,15.80
2023-04-15T14:50:18.209Z,15.13
2023-04-15T14:52:45.399Z,15.24
2023-04-15T14:55:13.756Z,15.62
2023-04-15T14:57:42.342Z,15.27
2023-04-15T15:00:12.719Z,15.88
2023-04-15T15:02:47.489Z,15.96
2023-04-15T15:05:14.854Z,15.92
2023-04-15T15:07:41.866Z,15.84
2023-04-15T15:10:09.016Z,15.66
2023-04-15T15:12:36.044Z,16.01
2023-04-15T15:15:12.249Z,16.22
2023-04-15T15:17:43.169Z,15.41
2023-04-15T15:20:10.599Z,15.54
2023-04-15T15:22:37.561Z,15.82
2023-04-15T15:25:05.214Z,16.07
2023-04-15T15:27:32.175Z,15.36
2023-04-15T15:29:59.991Z,15.43
2023-04-15T15:32:27.036Z,15.46
2023-04-15T15:34:54.053Z,15.82
2023-04-15T15:37:21.300Z,15.47
2023-04-15T15:39:49.069Z,15.24
2023-04-15T15:42:16.332Z,15.74
2023-04-15T15:44:43.346Z,15.60
2023-04-15T15:47:10.544Z,14.81
2023-04-15T15:49:37.907Z,15.49
2023-04-15T15:52:05.083Z,15.24
2023-04-15T15:54:32.226Z,15.28
2023-04-15T15:56:59.195Z,15.04
2023-04-15T15:59:26.141Z,15.25
2023-04-15T16:01:53.800Z,15.42
2023-04-15T16:04:21.842Z,16.01
2023-04-15T16:06:48.991Z,15.53
2023-04-15T16:09:16.086Z,15.59
2023-04-15T16:11:44.588Z,15.61
2023-04-15T16:14:11.890Z,15.96
2023-04-15T16:16:41.946Z,16.45
2023-04-15T16:19:09.508Z,16.34
2023-04-15T16:21:36.581Z,16.54
2023-04-15T16:24:03.571Z,16.25
2023-04-15T16:26:30.508Z,16.29
2023-04-15T16:28:57.824Z,16.33
2023-04-15T16:31:24.893Z,16.07
2023-04-15T16:33:51.953Z,15.98
2023-04-15T16:36:19.532Z,16.20
2023-04-15T16:38:48.598Z,16.31
2023-04-15T16:41:16.440Z,15.90
2023-04-15T16:43:43.973Z,16.16
2023-04-15T16:46:11.971Z,16.42
2023-04-15T16:48:38.981Z,16.39
2023-04-15T16:51:06.099Z,16.06
2023-04-15T16:53:33.067Z,16.05
2023-04-15T16:56:00.451Z,15.97
2023-04-15T16:58:28.956Z,16.20
2023-04-15T17:00:56.264Z,16.37
2023-04-15T17:03:26.814Z,16.01
2023-04-15T17:05:56.008Z,15.98
2023-04-15T17:08:23.449Z,16.21
2023-04-15T17:10:51.770Z,16.21
2023-04-15T17:13:18.959Z,15.96
2023-04-15T17:15:46.194Z,16.11
2023-04-15T17:18:15.770Z,16.25
2023-04-15T17:20:42.776Z,16.19
2023-04-15T17:23:10.375Z,16.08
2023-04-15T17:25:38.017Z,16.24
2023-04-15T17:28:05.263Z,15.64
2023-04-15T17:30:33.451Z,15.95
2023-04-15T17:33:00.760Z,15.54
2023-04-15T17:35:27.821Z,15.82
2023-04-15T17:37:54.773Z,15.30
2023-04-15T17:40:22.028Z,15.53
2023-04-15T17:42:49.459Z,15.49
2023-04-15T17:45:17.164Z,15.36
2023-04-15T17:47:44.164Z,15.55
2023-04-15T17:50:11.500Z,15.47
2023-04-15T17:52:38.939Z,15.75
2023-04-15T17:55:07.675Z,15.61
2023-04-15T17:57:34.642Z,15.27
2023-04-15T18:00:02.000Z,15.21
2023-04-15T18:02:29.260Z,15.65
2023-04-15T18:04:56.741Z,15.87
2023-04-15T18:07:24.009Z,15.81
2023-04-15T18:09:53.169Z,15.84
2023-04-15T18:12:21.005Z,15.53
2023-04-15T18:14:48.010Z,15.26
2023-04-15T18:17:14.997Z,15.53
2023-04-15T18:19:41.972Z,15.63
2023-04-15T18:22:09.104Z,15.82
2023-04-15T18:24:36.474Z,15.82
2023-04-15T18:27:03.876Z,15.95
2023-04-15T18:29:31.385Z,16.10
2023-04-15T18:32:03.000Z,16.05
2023-04-15T18:34:30.323Z,15.83
2023-04-15T18:36:58.962Z,15.83
2023-04-15T18:39:27.367Z,15.83
2023-04-15T18:41:56.170Z,15.85
2023-04-15T18:44:23.763Z,15.96
2023-04-15T18:46:50.865Z,15.70
2023-04-15T18:49:18.554Z,15.59
2023-04-15T18:51:45.581Z,15.86
2023-04-15T18:54:31.549Z,15.72
2023-04-15T18:56:59.520Z,15.84
2023-04-15T18:59:30.486Z,16.12
2023-04-15T19:02:00.016Z,16.12
2023-04-15T19:04:29.353Z,16.12
2023-04-15T19:06:56.806Z,16.16
2023-04-15T19:09:24.383Z,15.94
2023-04-15T19:11:51.386Z,15.89
2023-04-15T19:14:18.602Z,15.72
2023-04-15T19:16:45.905Z,15.51
2023-04-15T19:19:14.586Z,15.91
2023-04-15T19:21:42.043Z,15.84
2023-04-15T19:24:09.056Z,15.51
2023-04-15T19:26:37.137Z,15.51
2023-04-15T19:29:04.550Z,15.29
2023-04-15T19:31:31.965Z,15.44
2023-04-15T19:33:58.998Z,15.24
2023-04-15T19:36:28.107Z,15.53
2023-04-15T19:38:55.059Z,15.59
2023-04-15T19:41:22.139Z,15.70
2023-04-15T19:43:49.148Z,15.57
2023-04-15T19:46:16.562Z,15.75
2023-04-15T19:48:43.631Z,15.47
2023-04-15T19:51:10.784Z,15.65
2023-04-15T19:53:37.804Z,15.78
2023-04-15T19:56:05.398Z,16.10
2023-04-15T19:58:32.564Z,15.60
2023-04-15T20:01:01.377Z,15.60
2023-04-15T20:03:28.554Z,15.56
2023-04-15T20:05:55.790Z,15.15
2023-04-15T20:08:22.918Z,15.45
2023-04-15T20:10:50.036Z,15.37
2023-04-15T20:13:17.442Z,15.71
2023-04-15T20:15:45.091Z,15.48
2023-04-15T20:18:12.552Z,15.54
2023-04-15T20:20:40.500Z,15.55
2023-04-15T20:23:07.643Z,15.32
2023-04-15T20:25:35.151Z,15.63
2023-04-15T20:28:02.692Z,15.58
2023-04-15T20:30:29.769Z,15.66
2023-04-15T20:32:57.054Z,15.46
2023-04-15T20:35:27.953Z,15.83
2023-04-15T20:37:54.943Z,15.42
2023-04-15T20:40:22.989Z,15.14
2023-04-15T20:42:50.048Z,15.59
2023-04-15T20:45:17.112Z,15.56
2023-04-15T20:47:44.751Z,15.59
2023-04-15T20:50:12.213Z,15.48
2023-04-15T20:52:39.809Z,15.45
2023-04-15T20:55:07.903Z,15.62
2023-04-15T20:57:35.458Z,15.54
2023-04-15T21:00:02.954Z,15.68
2023-04-15T21:02:30.145Z,15.48
2023-04-15T21:04:59.348Z,15.28
2023-04-15T21:07:26.459Z,15.58
2023-04-15T21:09:55.402Z,15.21
2023-04-15T21:12:22.431Z,15.33
2023-04-15T21:14:49.895Z,15.24
2023-04-15T21:17:19.473Z,15.31
2023-04-15T21:19:46.505Z,15.22
2023-04-15T21:22:13.572Z,15.58
2023-04-15T21:24:40.579Z,15.24
2023-04-15T21:27:07.600Z,15.43
2023-04-15T21:29:34.650Z,15.02
2023-04-15T21:32:01.782Z,14.94
2023-04-15T21:34:29.021Z,15.00
2023-04-15T21:36:56.498Z,15.13
2023-04-15T21:39:23.927Z,15.23
2023-04-15T21:41:51.381Z,15.03
2023-04-15T21:44:18.343Z,15.08
2023-04-15T21:46:46.198Z,14.87
2023-04-15T21:49:13.930Z,15.05
2023-04-15T21:51:41.275Z,15.14
2023-04-15T21:54:08.713Z,14.96
2023-04-15T21:56:37.868Z,15.21
2023-04-15T21:59:05.447Z,15.53
2023-04-15T22:01:32.529Z,14.98
2023-04-15T22:03:59.625Z,15.03
2023-04-15T22:06:27.254Z,15.02
2023-04-15T22:09:11.317Z,14.92
2023-04-15T22:11:39.796Z,14.90
2023-04-15T22:14:07.245Z,15.01
2023-04-15T22:16:34.601Z,15.08
2023-04-15T22:19:02.784Z,14.89
2023-04-15T22:21:30.267Z,15.09
2023-04-15T22:24:38.013Z,15.34
2023-04-15T22:26:45.281Z,15.32
2023-04-15T22:29:12.270Z,14.83
2023-04-15T22:31:39.260Z,15.05
2023-04-15T22:34:06.423Z,14.53
2023-04-15T22:36:33.541Z,15.11
2023-04-15T22:39:00.513Z,14.96
2023-04-15T22:41:27.450Z,15.16
2023-04-15T22:43:54.378Z,15.21
2023-04-15T22:46:21.744Z,15.37
2023-04-15T22:48:48.712Z,15.02
2023-04-15T22:51:22.908Z,15.18
2023-04-15T22:53:50.669Z,15.06
2023-04-15T22:56:22.002Z,15.53
2023-04-15T22:58:50.301Z,15.14
2023-04-15T23:01:18.218Z,15.37
2023-04-15T23:03:56.387Z,15.41
2023-04-15T23:06:32.402Z,15.37
2023-04-15T23:08:59.783Z,15.21
2023-04-15T23:11:27.138Z,14.95
2023-04-15T23:13:54.462Z,14.79
2023-04-15T23:16:22.791Z,14.80
2023-04-15T23:18:49.771Z,14.81
2023-04-15T23:21:17.134Z,14.73
2023-04-15T23:23:44.535Z,14.82
2023-04-15T23:26:11.552Z,14.77
2023-04-15T23:28:38.498Z,14.58
2023-04-15T23:31:06.917Z,14.73
2023-04-15T23:33:33.823Z,14.75
2023-04-15T23:36:00.870Z,14.63
2023-04-15T23:38:28.251Z,14.59
2023-04-15T23:40:55.225Z,14.84
2023-04-15T23:43:22.544Z,14.68
2023-04-15T23:45:49.964Z,14.57
2023-04-15T23:48:17.301Z,14.53
2023-04-15T23:50:44.356Z,14.65
2023-04-15T23:53:11.644Z,14.32
2023-04-15T23:55:38.969Z,14.38
2023-04-15T23:58:06.259Z,14.24
